Pluck, Texas
Current Conditions -  °F | °C
As of 1:53 PM on Thursday 18 Dec 2014 (Local Time) from KLFK Reporting Station
Overcast Overcast  
Wind Chill: 60°   Ceiling: 1800
Heat Index: 60°   Visibility: 9mi
Dew Point: 50°   Wind: 5mph
Humidity: 69%   Direction: 350°N
Pressure: 30.09"   Gusts: NA
Location:  31.024°N, 94.7686°W
Report Text: KLFK 181953Z AUTO 35004KT 9SM FEW012 OVC018 16/10 A3009 RMK AO2 SLP185 T01560100
Loading
Personal Weather Stations






























Interactive Weather Map New forecast layout! Learn more

10-Day Weather Forecast

Advertisements
Track Severe Weather on mobile